Time;durP1;ratioP1;P1;durP2;ratioP2;P2;SDS_P1;SDS_P2;PMS_P1;PMS_P2;Temp;Humidity;BMP_temperature;BMP_pressure;BME280_temperature;BME280_humidity;BME280_pressure;Samples;Min_cycle;Max_cycle;Signal;HPM_P1;HPM_P2
2023/03/13 00:01:15;;;;;;;5.30;2.25;;;;;;;;;;5035079;28;20501;-69
2023/03/13 00:03:41;;;;;;;3.78;2.40;;;;;;;;;;5035046;28;20490;-70
2023/03/13 00:06:08;;;;;;;3.50;2.30;;;;;;;;;;5035016;28;20018;-70
2023/03/13 00:08:34;;;;;;;5.97;2.20;;;;;;;;;;5034944;28;20021;-69
2023/03/13 00:11:04;;;;;;;5.28;2.50;;;;;;;;;;5034053;28;20021;-69
2023/03/13 00:13:30;;;;;;;3.60;2.22;;;;;;;;;;5034727;28;20041;-69
2023/03/13 00:16:00;;;;;;;6.80;2.70;;;;;;;;;;5034966;28;20029;-69
2023/03/13 00:18:27;;;;;;;6.28;2.97;;;;;;;;;;5035011;28;20029;-69
2023/03/13 00:21:09;;;;;;;7.28;3.25;;;;;;;;;;5034784;28;20028;-70
2023/03/13 00:23:36;;;;;;;3.30;2.35;;;;;;;;;;5034948;28;20023;-69
2023/03/13 00:26:06;;;;;;;5.90;2.85;;;;;;;;;;5034692;28;20025;-69
2023/03/13 00:28:33;;;;;;;5.28;2.80;;;;;;;;;;5034305;28;20393;-70
2023/03/13 00:31:03;;;;;;;3.42;2.40;;;;;;;;;;5034753;28;20025;-70
2023/03/13 00:33:29;;;;;;;4.00;1.90;;;;;;;;;;5034780;28;20486;-69
2023/03/13 00:36:02;;;;;;;6.15;2.20;;;;;;;;;;5034599;28;20021;-69
2023/03/13 00:38:29;;;;;;;3.63;2.00;;;;;;;;;;5034373;28;20389;-69
2023/03/13 00:41:19;;;;;;;3.25;1.88;;;;;;;;;;5034508;28;20071;-69
2023/03/13 00:43:46;;;;;;;3.67;1.60;;;;;;;;;;5033749;28;20049;-70
2023/03/13 00:46:14;;;;;;;3.30;1.92;;;;;;;;;;5034268;28;20056;-70
2023/03/13 00:48:41;;;;;;;5.50;2.03;;;;;;;;;;5034386;28;20436;-69
2023/03/13 00:51:07;;;;;;;5.13;1.70;;;;;;;;;;5034659;28;20044;-70
2023/03/13 00:53:34;;;;;;;3.70;2.03;;;;;;;;;;5034327;28;20025;-70
2023/03/13 00:56:05;;;;;;;2.85;1.70;;;;;;;;;;5033868;28;20033;-69
2023/03/13 00:58:33;;;;;;;4.20;1.52;;;;;;;;;;5033699;28;20028;-70
2023/03/13 01:01:25;;;;;;;3.45;1.80;;;;;;;;;;5034059;28;20033;-70
2023/03/13 01:03:53;;;;;;;4.43;1.50;;;;;;;;;;5033293;28;20056;-69
2023/03/13 01:06:22;;;;;;;4.28;1.95;;;;;;;;;;5033878;28;20021;-70
2023/03/13 01:08:48;;;;;;;1.85;1.38;;;;;;;;;;5033865;28;20390;-69
2023/03/13 01:11:16;;;;;;;1.67;1.25;;;;;;;;;;5033599;28;20401;-69
2023/03/13 01:13:43;;;;;;;3.80;1.70;;;;;;;;;;5033880;28;20044;-70
2023/03/13 01:16:10;;;;;;;3.63;1.80;;;;;;;;;;5033949;28;20032;-70
2023/03/13 01:18:38;;;;;;;3.53;2.30;;;;;;;;;;5034111;28;20014;-69
2023/03/13 01:21:05;;;;;;;4.40;2.33;;;;;;;;;;5033793;28;20036;-69
2023/03/13 01:23:31;;;;;;;4.80;2.00;;;;;;;;;;5033840;28;20028;-69
2023/03/13 01:25:57;;;;;;;3.22;2.63;;;;;;;;;;5033333;28;20490;-70
2023/03/13 01:28:25;;;;;;;4.80;2.50;;;;;;;;;;5033688;28;20033;-69
2023/03/13 01:30:51;;;;;;;3.20;2.30;;;;;;;;;;5033474;28;20033;-69
2023/03/13 01:33:18;;;;;;;3.10;1.70;;;;;;;;;;5033473;28;20033;-69
2023/03/13 01:35:44;;;;;;;2.05;1.30;;;;;;;;;;5033360;28;20029;-69
2023/03/13 01:38:11;;;;;;;2.47;1.48;;;;;;;;;;5033094;28;20028;-69
2023/03/13 01:40:45;;;;;;;2.88;1.80;;;;;;;;;;5033337;28;20032;-69
2023/03/13 01:43:17;;;;;;;3.33;1.60;;;;;;;;;;5033308;28;20037;-69
2023/03/13 01:45:54;;;;;;;3.08;1.60;;;;;;;;;;5033138;28;20048;-69
2023/03/13 01:48:21;;;;;;;3.65;1.67;;;;;;;;;;5033031;28;20048;-70
2023/03/13 01:50:48;;;;;;;5.22;1.80;;;;;;;;;;5033308;28;20039;-69
2023/03/13 01:53:14;;;;;;;2.63;1.70;;;;;;;;;;5033098;28;20026;-69
2023/03/13 01:55:41;;;;;;;5.95;2.03;;;;;;;;;;5032943;28;20030;-69
2023/03/13 01:58:07;;;;;;;2.70;1.60;;;;;;;;;;5033146;28;20022;-70
2023/03/13 02:00:34;;;;;;;4.70;1.75;;;;;;;;;;5033012;28;20393;-69
2023/03/13 02:03:03;;;;;;;3.17;1.50;;;;;;;;;;5064754;28;20040;-69
2023/03/13 02:05:30;;;;;;;2.00;1.60;;;;;;;;;;5032945;28;20044;-69
2023/03/13 02:08:00;;;;;;;4.47;2.30;;;;;;;;;;5032127;28;20033;-69
2023/03/13 02:10:29;;;;;;;3.22;1.80;;;;;;;;;;5032647;28;20032;-70
2023/03/13 02:12:56;;;;;;;2.90;1.77;;;;;;;;;;5032766;28;20017;-70
2023/03/13 02:15:24;;;;;;;2.90;1.17;;;;;;;;;;5032640;28;20038;-69
2023/03/13 02:17:50;;;;;;;3.63;1.50;;;;;;;;;;5031437;28;20501;-69
2023/03/13 02:20:22;;;;;;;3.33;1.20;;;;;;;;;;5032696;28;20033;-69
2023/03/13 02:22:59;;;;;;;3.28;1.33;;;;;;;;;;5032927;28;20022;-70
2023/03/13 02:25:35;;;;;;;4.90;1.60;;;;;;;;;;5032128;28;20025;-69
2023/03/13 02:28:04;;;;;;;3.30;1.48;;;;;;;;;;5032497;28;20043;-69
2023/03/13 02:30:31;;;;;;;5.00;1.40;;;;;;;;;;5032504;28;20022;-70
2023/03/13 02:32:57;;;;;;;2.15;1.20;;;;;;;;;;5032258;28;20079;-69
2023/03/13 02:35:23;;;;;;;3.13;1.25;;;;;;;;;;5032467;28;20083;-69
2023/03/13 02:37:51;;;;;;;5.68;1.67;;;;;;;;;;5032299;28;20091;-70
2023/03/13 02:40:22;;;;;;;3.35;1.55;;;;;;;;;;5032225;28;20034;-69
2023/03/13 02:42:48;;;;;;;1.80;1.40;;;;;;;;;;5031978;28;20591;-70
2023/03/13 02:45:15;;;;;;;2.95;1.48;;;;;;;;;;5032300;28;20041;-70
2023/03/13 02:47:42;;;;;;;2.00;1.48;;;;;;;;;;5032515;28;20045;-69
2023/03/13 02:50:10;;;;;;;2.60;1.20;;;;;;;;;;5032155;28;20022;-70
2023/03/13 02:52:38;;;;;;;2.47;1.52;;;;;;;;;;5032095;28;20031;-69
2023/03/13 02:55:06;;;;;;;1.73;1.25;;;;;;;;;;5032003;28;20033;-69
2023/03/13 02:57:34;;;;;;;3.85;1.30;;;;;;;;;;5032012;28;20392;-69
2023/03/13 03:00:00;;;;;;;10.25;1.27;;;;;;;;;;5032157;28;20025;-70
2023/03/13 03:02:26;;;;;;;2.78;1.10;;;;;;;;;;5031919;28;20504;-69
2023/03/13 03:04:53;;;;;;;3.92;1.27;;;;;;;;;;5032159;28;20037;-69
2023/03/13 03:07:19;;;;;;;2.03;1.45;;;;;;;;;;5031742;28;20014;-69
2023/03/13 03:09:45;;;;;;;3.35;1.50;;;;;;;;;;5031932;28;20029;-69
2023/03/13 03:12:11;;;;;;;2.40;1.58;;;;;;;;;;5031817;28;20067;-69
2023/03/13 03:14:38;;;;;;;3.30;1.50;;;;;;;;;;5031923;28;20496;-70
2023/03/13 03:17:04;;;;;;;1.80;1.15;;;;;;;;;;5031817;28;20478;-69
2023/03/13 03:19:30;;;;;;;1.55;1.13;;;;;;;;;;5032768;28;20025;-70
2023/03/13 03:21:57;;;;;;;5.25;1.50;;;;;;;;;;5035535;28;20484;-70
2023/03/13 03:24:23;;;;;;;3.50;1.30;;;;;;;;;;5036058;28;20091;-69
2023/03/13 03:26:49;;;;;;;3.42;1.50;;;;;;;;;;5035677;28;20017;-70
2023/03/13 03:29:16;;;;;;;3.70;1.13;;;;;;;;;;5036043;28;20024;-70
2023/03/13 03:31:42;;;;;;;1.85;1.38;;;;;;;;;;5035684;28;20025;-70
2023/03/13 03:34:08;;;;;;;2.70;1.17;;;;;;;;;;5035500;28;20037;-70
2023/03/13 03:36:35;;;;;;;3.17;1.67;;;;;;;;;;5035246;28;20482;-69
2023/03/13 03:39:01;;;;;;;2.05;1.55;;;;;;;;;;5035482;28;20024;-69
2023/03/13 03:41:27;;;;;;;2.15;1.50;;;;;;;;;;5035548;28;20401;-70
2023/03/13 03:43:54;;;;;;;3.08;1.55;;;;;;;;;;5035616;28;20049;-70
2023/03/13 03:46:20;;;;;;;3.63;1.75;;;;;;;;;;5035276;28;20025;-70
2023/03/13 03:48:46;;;;;;;3.28;1.58;;;;;;;;;;5035351;28;20021;-70
2023/03/13 03:51:13;;;;;;;2.22;1.40;;;;;;;;;;5035134;28;20048;-69
2023/03/13 03:53:39;;;;;;;4.78;1.45;;;;;;;;;;5035272;28;20029;-69
2023/03/13 03:56:06;;;;;;;2.50;1.60;;;;;;;;;;5035183;28;20026;-69
2023/03/13 03:58:32;;;;;;;2.95;1.30;;;;;;;;;;5035173;28;20033;-70
2023/03/13 04:00:59;;;;;;;4.70;1.60;;;;;;;;;;5035224;28;20025;-70
2023/03/13 04:03:25;;;;;;;1.88;1.30;;;;;;;;;;5035146;28;20025;-69
2023/03/13 04:05:52;;;;;;;3.10;1.48;;;;;;;;;;5034693;28;20017;-69
2023/03/13 04:08:19;;;;;;;3.58;1.38;;;;;;;;;;5034893;28;20034;-70
2023/03/13 04:10:45;;;;;;;6.55;1.48;;;;;;;;;;5035127;28;20452;-70
2023/03/13 04:13:11;;;;;;;7.68;1.88;;;;;;;;;;5034921;28;20074;-70
2023/03/13 04:15:38;;;;;;;2.95;1.58;;;;;;;;;;5035229;28;20060;-69
2023/03/13 04:18:05;;;;;;;3.25;1.45;;;;;;;;;;5034712;28;20024;-69
2023/03/13 04:20:31;;;;;;;4.90;1.65;;;;;;;;;;5034773;28;20035;-70
2023/03/13 04:22:57;;;;;;;2.10;1.42;;;;;;;;;;5035050;28;20030;-70
2023/03/13 04:25:24;;;;;;;5.13;1.63;;;;;;;;;;5034702;28;20021;-70
2023/03/13 04:27:50;;;;;;;2.83;1.42;;;;;;;;;;5034709;28;20036;-69
2023/03/13 04:30:17;;;;;;;2.97;1.88;;;;;;;;;;5034637;28;20071;-70
2023/03/13 04:32:43;;;;;;;1.67;1.45;;;;;;;;;;5033921;28;20041;-70
2023/03/13 04:35:09;;;;;;;4.40;1.60;;;;;;;;;;5034183;28;20030;-69
2023/03/13 04:37:36;;;;;;;5.13;1.63;;;;;;;;;;5034385;28;20032;-69
2023/03/13 04:40:02;;;;;;;2.83;1.45;;;;;;;;;;5034427;28;20031;-69
2023/03/13 04:42:28;;;;;;;1.67;1.38;;;;;;;;;;5034734;28;20025;-70
2023/03/13 04:44:55;;;;;;;4.00;1.80;;;;;;;;;;5034241;28;20420;-69
2023/03/13 04:47:21;;;;;;;4.95;1.80;;;;;;;;;;5034312;28;20405;-70
2023/03/13 04:49:47;;;;;;;4.07;1.60;;;;;;;;;;5033949;28;20036;-69
2023/03/13 04:52:14;;;;;;;4.47;1.85;;;;;;;;;;5034422;28;20028;-70
2023/03/13 04:54:40;;;;;;;4.07;1.50;;;;;;;;;;5034086;28;20033;-69
2023/03/13 04:57:06;;;;;;;3.67;1.50;;;;;;;;;;5034374;28;20029;-70
2023/03/13 04:59:33;;;;;;;3.35;1.80;;;;;;;;;;5034235;28;20029;-69
2023/03/13 05:01:59;;;;;;;3.17;1.73;;;;;;;;;;5034043;28;20024;-69
2023/03/13 05:04:25;;;;;;;2.17;1.58;;;;;;;;;;5034008;28;20490;-69
2023/03/13 05:06:52;;;;;;;3.42;1.88;;;;;;;;;;5033920;28;20028;-70
2023/03/13 05:09:18;;;;;;;4.82;1.35;;;;;;;;;;5033897;28;20029;-69
2023/03/13 05:11:44;;;;;;;3.78;1.48;;;;;;;;;;5034082;28;20038;-69
2023/03/13 05:14:11;;;;;;;2.88;1.65;;;;;;;;;;5033766;28;20034;-69
2023/03/13 05:16:40;;;;;;;3.17;1.27;;;;;;;;;;5033768;28;20025;-69
2023/03/13 05:19:06;;;;;;;2.47;1.50;;;;;;;;;;5033377;28;20548;-70
2023/03/13 05:21:33;;;;;;;3.85;1.60;;;;;;;;;;5033624;28;20030;-69
2023/03/13 05:23:59;;;;;;;3.55;1.45;;;;;;;;;;5033658;28;20026;-70
2023/03/13 05:26:25;;;;;;;5.50;1.45;;;;;;;;;;5033683;28;20028;-69
2023/03/13 05:28:52;;;;;;;1.95;1.40;;;;;;;;;;5033429;28;20478;-69
2023/03/13 05:31:18;;;;;;;3.47;1.77;;;;;;;;;;5033547;28;20032;-70
2023/03/13 05:33:44;;;;;;;2.88;1.48;;;;;;;;;;5032875;28;20397;-69
2023/03/13 05:36:11;;;;;;;4.30;1.40;;;;;;;;;;5033313;28;20036;-70
2023/03/13 05:38:37;;;;;;;4.63;1.50;;;;;;;;;;5033260;28;20027;-70
2023/03/13 05:41:03;;;;;;;3.70;1.58;;;;;;;;;;5033172;28;20040;-70
2023/03/13 05:43:29;;;;;;;2.45;1.70;;;;;;;;;;5033094;28;20033;-69
2023/03/13 05:45:56;;;;;;;2.25;1.80;;;;;;;;;;5033408;28;20025;-69
2023/03/13 05:48:22;;;;;;;6.88;1.98;;;;;;;;;;5032753;28;20416;-69
2023/03/13 05:50:48;;;;;;;4.43;2.10;;;;;;;;;;5033282;28;20096;-70
2023/03/13 05:53:15;;;;;;;4.53;2.08;;;;;;;;;;5032064;28;20034;-70
2023/03/13 05:55:41;;;;;;;2.00;1.80;;;;;;;;;;5032906;28;20030;-70
2023/03/13 05:58:08;;;;;;;5.47;2.58;;;;;;;;;;5033180;28;20032;-70
2023/03/13 06:00:34;;;;;;;4.32;3.75;;;;;;;;;;5032993;28;20032;-70
2023/03/13 06:03:00;;;;;;;4.20;3.75;;;;;;;;;;5032754;28;20021;-70
2023/03/13 06:05:27;;;;;;;3.45;3.15;;;;;;;;;;5032902;28;20028;-69
2023/03/13 06:07:53;;;;;;;3.78;1.60;;;;;;;;;;5033002;28;20029;-70
2023/03/13 06:10:20;;;;;;;4.40;1.30;;;;;;;;;;5032652;28;20466;-69
2023/03/13 06:12:52;;;;;;;2.90;1.27;;;;;;;;;;5032712;28;20470;-70
2023/03/13 06:15:18;;;;;;;3.63;1.30;;;;;;;;;;5033061;28;20033;-69
2023/03/13 06:17:44;;;;;;;4.38;1.30;;;;;;;;;;5029863;28;20547;-70
2023/03/13 06:20:11;;;;;;;2.83;1.30;;;;;;;;;;5031506;28;20052;-70
2023/03/13 06:22:37;;;;;;;3.33;1.17;;;;;;;;;;5032443;28;20520;-69
2023/03/13 06:25:04;;;;;;;4.13;1.00;;;;;;;;;;5032001;28;20029;-70
2023/03/13 06:27:31;;;;;;;3.85;1.33;;;;;;;;;;5032198;28;20082;-70
2023/03/13 06:29:57;;;;;;;4.70;2.33;;;;;;;;;;5032124;28;20047;-70
2023/03/13 06:32:23;;;;;;;4.97;2.63;;;;;;;;;;5031993;28;20029;-70
2023/03/13 06:34:51;;;;;;;3.97;3.30;;;;;;;;;;5032175;28;20033;-70
2023/03/13 06:37:17;;;;;;;5.07;3.97;;;;;;;;;;5032369;28;20022;-69
2023/03/13 06:39:43;;;;;;;10.57;5.97;;;;;;;;;;5032107;28;20025;-69
2023/03/13 06:42:10;;;;;;;14.77;10.57;;;;;;;;;;5031764;28;20037;-69
2023/03/13 06:44:36;;;;;;;6.93;4.57;;;;;;;;;;5031841;28;20053;-69
2023/03/13 06:47:02;;;;;;;4.93;2.35;;;;;;;;;;5031825;28;20143;-70
2023/03/13 06:49:29;;;;;;;2.28;1.50;;;;;;;;;;5031064;28;20659;-69
2023/03/13 06:51:57;;;;;;;1.63;1.40;;;;;;;;;;5030820;28;20018;-70
2023/03/13 06:54:24;;;;;;;3.97;1.50;;;;;;;;;;5031406;28;20043;-70
2023/03/13 06:56:50;;;;;;;6.68;2.90;;;;;;;;;;5031805;28;20032;-70
2023/03/13 06:59:16;;;;;;;5.80;2.67;;;;;;;;;;5031471;28;20421;-70
2023/03/13 07:01:43;;;;;;;7.03;3.97;;;;;;;;;;5030906;28;20460;-70
2023/03/13 07:04:11;;;;;;;6.80;3.67;;;;;;;;;;5031098;28;20389;-70
2023/03/13 07:06:38;;;;;;;2.42;1.60;;;;;;;;;;5031401;28;20022;-69
2023/03/13 07:09:04;;;;;;;5.38;1.95;;;;;;;;;;5030706;28;20025;-70
2023/03/13 07:11:30;;;;;;;5.20;1.80;;;;;;;;;;5031135;28;20032;-70
2023/03/13 07:14:00;;;;;;;7.75;2.30;;;;;;;;;;5030019;28;20026;-70
2023/03/13 07:16:26;;;;;;;6.20;2.35;;;;;;;;;;5031477;28;20029;-70
2023/03/13 07:18:53;;;;;;;4.63;2.00;;;;;;;;;;5029424;28;20022;-70
2023/03/13 07:21:19;;;;;;;11.30;1.90;;;;;;;;;;5030436;28;20375;-69
2023/03/13 07:23:45;;;;;;;4.78;2.13;;;;;;;;;;5027745;28;20029;-70
2023/03/13 07:26:13;;;;;;;5.03;1.95;;;;;;;;;;5030003;28;20017;-70
2023/03/13 07:28:40;;;;;;;8.55;1.60;;;;;;;;;;5030542;28;20032;-70
2023/03/13 07:31:08;;;;;;;6.32;2.75;;;;;;;;;;5030594;28;20484;-70
2023/03/13 07:33:34;;;;;;;9.23;4.88;;;;;;;;;;5060089;28;20033;-70
2023/03/13 07:36:00;;;;;;;11.38;7.38;;;;;;;;;;5030829;28;20300;-70
2023/03/13 07:38:27;;;;;;;9.52;3.20;;;;;;;;;;5030182;28;20017;-70
2023/03/13 07:40:55;;;;;;;5.30;2.60;;;;;;;;;;5030550;28;20393;-70
2023/03/13 07:43:22;;;;;;;8.10;3.05;;;;;;;;;;5030577;28;20057;-69
2023/03/13 07:45:54;;;;;;;11.25;2.70;;;;;;;;;;5030684;28;20509;-70
2023/03/13 07:48:21;;;;;;;9.57;2.63;;;;;;;;;;5030353;28;20058;-70
2023/03/13 07:50:47;;;;;;;10.07;4.05;;;;;;;;;;5030201;28;20026;-70
2023/03/13 07:53:19;;;;;;;21.52;4.78;;;;;;;;;;5029908;28;20034;-70
2023/03/13 07:55:52;;;;;;;21.30;4.55;;;;;;;;;;5030273;28;20033;-70
2023/03/13 07:58:19;;;;;;;12.77;3.78;;;;;;;;;;5030266;28;20428;-69
2023/03/13 08:00:45;;;;;;;9.15;2.63;;;;;;;;;;5031175;28;20033;-70
2023/03/13 08:03:11;;;;;;;8.30;2.08;;;;;;;;;;5033727;28;20028;-70
2023/03/13 08:05:38;;;;;;;5.53;1.65;;;;;;;;;;5029520;28;20022;-70
2023/03/13 08:08:04;;;;;;;5.10;1.60;;;;;;;;;;5043165;28;20024;-70
2023/03/13 08:10:30;;;;;;;6.88;1.70;;;;;;;;;;5055030;28;20023;-70
2023/03/13 08:12:57;;;;;;;4.03;1.52;;;;;;;;;;5054574;28;20029;-70
2023/03/13 08:15:25;;;;;;;4.85;1.52;;;;;;;;;;5038347;28;20049;-70
2023/03/13 08:17:52;;;;;;;8.23;1.70;;;;;;;;;;5034435;28;20018;-70
2023/03/13 08:20:18;;;;;;;3.20;1.70;;;;;;;;;;5034085;28;20037;-70
2023/03/13 08:22:51;;;;;;;12.38;1.85;;;;;;;;;;5034079;28;20029;-70
2023/03/13 08:25:17;;;;;;;5.32;1.42;;;;;;;;;;5014754;28;20022;-70
2023/03/13 08:27:44;;;;;;;8.98;1.83;;;;;;;;;;5031670;28;20029;-70
2023/03/13 08:30:10;;;;;;;2.15;1.58;;;;;;;;;;5034090;28;20025;-70
2023/03/13 08:32:37;;;;;;;3.33;1.55;;;;;;;;;;5034298;28;20016;-70
2023/03/13 08:35:03;;;;;;;5.38;1.80;;;;;;;;;;5033967;28;20045;-70
2023/03/13 08:37:30;;;;;;;5.65;1.92;;;;;;;;;;5032956;28;20021;-70
2023/03/13 08:39:56;;;;;;;4.63;1.60;;;;;;;;;;5033711;28;20025;-70
2023/03/13 08:42:23;;;;;;;6.85;1.40;;;;;;;;;;5033341;28;20029;-70
2023/03/13 08:44:49;;;;;;;8.10;1.40;;;;;;;;;;5033490;28;20453;-70
2023/03/13 08:47:17;;;;;;;4.00;1.50;;;;;;;;;;5032512;28;20028;-70
2023/03/13 08:49:43;;;;;;;7.25;1.50;;;;;;;;;;5022955;28;20036;-70
2023/03/13 08:52:10;;;;;;;6.18;2.00;;;;;;;;;;5033008;28;20379;-71
2023/03/13 08:54:36;;;;;;;2.35;1.33;;;;;;;;;;5033867;28;20037;-70
2023/03/13 08:57:02;;;;;;;2.78;1.42;;;;;;;;;;5032087;28;20029;-70
2023/03/13 08:59:29;;;;;;;5.72;1.30;;;;;;;;;;5033334;28;20025;-70
2023/03/13 09:01:55;;;;;;;6.70;1.45;;;;;;;;;;5033807;28;20029;-70
2023/03/13 09:04:22;;;;;;;4.32;1.50;;;;;;;;;;5033719;28;20032;-70
2023/03/13 09:06:48;;;;;;;3.15;1.42;;;;;;;;;;5033296;28;20025;-70
2023/03/13 09:09:14;;;;;;;4.95;1.50;;;;;;;;;;5033440;28;20041;-70
2023/03/13 09:11:41;;;;;;;2.42;1.13;;;;;;;;;;5033245;28;20587;-70
2023/03/13 09:14:07;;;;;;;2.90;1.20;;;;;;;;;;5033134;28;20032;-70
2023/03/13 09:16:37;;;;;;;7.82;1.50;;;;;;;;;;5033114;28;20024;-70
2023/03/13 09:19:03;;;;;;;2.53;1.38;;;;;;;;;;5032753;28;20445;-70
2023/03/13 09:21:31;;;;;;;1.65;1.20;;;;;;;;;;5031994;28;20034;-71
2023/03/13 09:23:58;;;;;;;4.47;1.63;;;;;;;;;;5033113;28;20031;-69
2023/03/13 09:26:25;;;;;;;4.57;0.90;;;;;;;;;;5033184;28;20482;-71
2023/03/13 09:28:52;;;;;;;3.13;1.55;;;;;;;;;;5033113;28;20022;-71
2023/03/13 09:31:28;;;;;;;5.78;1.52;;;;;;;;;;5033412;28;20030;-68
2023/03/13 09:33:55;;;;;;;6.90;1.50;;;;;;;;;;5033028;28;20017;-71
2023/03/13 09:36:22;;;;;;;2.13;1.35;;;;;;;;;;5033003;28;20079;-68
2023/03/13 09:38:49;;;;;;;4.20;1.50;;;;;;;;;;5033635;28;20378;-69
2023/03/13 09:41:42;;;;;;;5.95;1.92;;;;;;;;;;5039266;28;20031;-68
2023/03/13 09:44:11;;;;;;;2.88;1.67;;;;;;;;;;5009408;28;20620;-68
2023/03/13 09:46:52;;;;;;;8.30;2.13;;;;;;;;;;5010213;28;20061;-68
2023/03/13 09:49:34;;;;;;;4.22;2.00;;;;;;;;;;5011036;28;20038;-68
2023/03/13 09:52:04;;;;;;;3.90;1.60;;;;;;;;;;5010853;28;20028;-68
2023/03/13 09:54:41;;;;;;;4.00;1.73;;;;;;;;;;5010496;28;20050;-68
2023/03/13 09:57:08;;;;;;;6.57;1.70;;;;;;;;;;5009626;28;20030;-70
2023/03/13 09:59:34;;;;;;;3.40;1.65;;;;;;;;;;5010628;28;20488;-68
2023/03/13 10:02:03;;;;;;;5.50;1.60;;;;;;;;;;5011544;28;20030;-71
2023/03/13 10:04:37;;;;;;;6.65;1.80;;;;;;;;;;5010838;28;20106;-67
2023/03/13 10:07:03;;;;;;;2.20;1.73;;;;;;;;;;5009924;28;20038;-70
2023/03/13 10:09:31;;;;;;;4.05;1.75;;;;;;;;;;5009469;28;20076;-68
2023/03/13 10:12:05;;;;;;;4.93;2.28;;;;;;;;;;5010280;28;20486;-68
2023/03/13 10:14:49;;;;;;;9.35;5.53;;;;;;;;;;5010286;28;20056;-70
2023/03/13 10:17:29;;;;;;;2.70;2.05;;;;;;;;;;5010636;28;20087;-70
2023/03/13 10:19:58;;;;;;;5.37;2.53;;;;;;;;;;5012118;28;20026;-70
2023/03/13 10:22:25;;;;;;;4.65;1.67;;;;;;;;;;5031443;28;20026;-70
2023/03/13 10:24:54;;;;;;;6.43;1.80;;;;;;;;;;5032065;28;20067;-71
2023/03/13 10:27:21;;;;;;;3.85;1.80;;;;;;;;;;5032108;28;20029;-70
2023/03/13 10:29:47;;;;;;;4.40;1.70;;;;;;;;;;5031470;28;20032;-70
2023/03/13 10:32:15;;;;;;;3.65;1.80;;;;;;;;;;5032024;28;20025;-70
2023/03/13 10:34:59;;;;;;;5.07;1.70;;;;;;;;;;5031380;28;20033;-71
2023/03/13 10:37:40;;;;;;;2.97;1.50;;;;;;;;;;5029534;28;20026;-70
2023/03/13 10:40:22;;;;;;;6.90;2.03;;;;;;;;;;5029633;28;20021;-70
2023/03/13 10:42:50;;;;;;;4.72;1.52;;;;;;;;;;5045779;28;20028;-70
2023/03/13 10:45:18;;;;;;;2.35;1.13;;;;;;;;;;5051893;28;20033;-70
2023/03/13 10:47:44;;;;;;;3.35;1.40;;;;;;;;;;5039771;28;20032;-70
2023/03/13 10:50:21;;;;;;;3.35;1.20;;;;;;;;;;5031995;28;20029;-70
2023/03/13 10:52:48;;;;;;;7.22;1.52;;;;;;;;;;5031091;28;20040;-70
2023/03/13 10:55:33;;;;;;;7.78;1.42;;;;;;;;;;5031830;28;20037;-70
2023/03/13 10:58:05;;;;;;;3.08;0.88;;;;;;;;;;5031714;28;20036;-70
2023/03/13 11:00:38;;;;;;;5.95;1.50;;;;;;;;;;5031000;28;20029;-69
2023/03/13 11:03:06;;;;;;;4.68;1.30;;;;;;;;;;5042862;28;20029;-70
2023/03/13 11:05:37;;;;;;;4.35;1.63;;;;;;;;;;5031839;28;20052;-70
2023/03/13 11:08:20;;;;;;;4.68;1.58;;;;;;;;;;5031823;28;20428;-70
2023/03/13 11:10:54;;;;;;;8.77;1.75;;;;;;;;;;5031589;28;20010;-70
2023/03/13 11:13:30;;;;;;;4.07;1.65;;;;;;;;;;5032114;28;20025;-70
2023/03/13 11:16:00;;;;;;;1.92;1.27;;;;;;;;;;5031521;28;20118;-70
2023/03/13 11:18:40;;;;;;;2.58;1.08;;;;;;;;;;5031630;28;20506;-70
2023/03/13 11:21:06;;;;;;;4.25;1.05;;;;;;;;;;5031604;28;20034;-71
2023/03/13 11:23:36;;;;;;;2.38;1.13;;;;;;;;;;5031680;28;20033;-70
2023/03/13 11:26:12;;;;;;;1.20;1.00;;;;;;;;;;5031439;28;20022;-70
2023/03/13 11:29:04;;;;;;;4.90;1.13;;;;;;;;;;5031775;28;20036;-70
2023/03/13 11:31:37;;;;;;;2.35;1.00;;;;;;;;;;5030765;28;20494;-70
2023/03/13 11:34:15;;;;;;;5.45;1.13;;;;;;;;;;5031515;28;20486;-70
2023/03/13 11:37:01;;;;;;;1.70;0.80;;;;;;;;;;5031377;28;20032;-70
2023/03/13 11:39:27;;;;;;;2.42;1.13;;;;;;;;;;5031456;28;20036;-69
2023/03/13 11:42:04;;;;;;;6.07;0.95;;;;;;;;;;5034651;28;20367;-70
2023/03/13 11:44:33;;;;;;;3.05;1.20;;;;;;;;;;5035273;28;20046;-69
2023/03/13 11:47:18;;;;;;;1.73;0.87;;;;;;;;;;5035050;28;20030;-69
2023/03/13 11:49:50;;;;;;;3.25;0.95;;;;;;;;;;5034673;28;20033;-69
2023/03/13 11:52:19;;;;;;;3.55;1.08;;;;;;;;;;5035385;28;20031;-69
2023/03/13 11:54:55;;;;;;;2.75;1.10;;;;;;;;;;5034957;28;20037;-69
2023/03/13 11:57:29;;;;;;;2.05;1.00;;;;;;;;;;5035118;28;20020;-70
2023/03/13 12:00:13;;;;;;;2.05;0.90;;;;;;;;;;5035277;28;20026;-69
2023/03/13 12:02:44;;;;;;;1.40;1.00;;;;;;;;;;5035144;28;20389;-69
2023/03/13 12:05:13;;;;;;;2.15;1.10;;;;;;;;;;5034544;28;20079;-69
2023/03/13 12:07:47;;;;;;;2.47;1.00;;;;;;;;;;5035072;28;20029;-69
2023/03/13 12:10:15;;;;;;;1.63;1.20;;;;;;;;;;5034765;28;20039;-69
2023/03/13 12:12:46;;;;;;;3.22;1.17;;;;;;;;;;5034812;28;20021;-69
2023/03/13 12:15:22;;;;;;;1.52;1.05;;;;;;;;;;5034702;28;20041;-69
2023/03/13 12:17:53;;;;;;;1.67;1.00;;;;;;;;;;5034724;28;20021;-69
2023/03/13 12:20:38;;;;;;;1.52;0.82;;;;;;;;;;5034559;28;20028;-69
2023/03/13 12:23:07;;;;;;;4.72;0.90;;;;;;;;;;5034486;28;20123;-69
2023/03/13 12:25:37;;;;;;;1.65;0.90;;;;;;;;;;5034545;28;20393;-69
2023/03/13 12:28:17;;;;;;;1.15;0.80;;;;;;;;;;5034817;28;20017;-68
2023/03/13 12:30:47;;;;;;;1.42;0.90;;;;;;;;;;5034720;28;20034;-69
2023/03/13 12:33:13;;;;;;;2.35;0.80;;;;;;;;;;5034265;28;20478;-69
2023/03/13 12:35:43;;;;;;;0.90;0.70;;;;;;;;;;5033949;28;20106;-69
2023/03/13 12:38:32;;;;;;;2.08;1.20;;;;;;;;;;5034104;28;20029;-69
2023/03/13 12:41:01;;;;;;;1.90;0.90;;;;;;;;;;5034097;28;20029;-69
2023/03/13 12:43:31;;;;;;;2.88;0.90;;;;;;;;;;5033986;28;20041;-69
2023/03/13 12:45:58;;;;;;;1.70;1.00;;;;;;;;;;5034060;28;20026;-69
2023/03/13 12:48:33;;;;;;;1.80;0.90;;;;;;;;;;5033636;28;20037;-69
2023/03/13 12:51:03;;;;;;;1.40;0.90;;;;;;;;;;5033900;28;20505;-69
2023/03/13 12:53:55;;;;;;;2.13;1.00;;;;;;;;;;5033273;28;20025;-69
2023/03/13 12:56:31;;;;;;;1.08;0.73;;;;;;;;;;5032432;28;20045;-69
2023/03/13 12:59:08;;;;;;;3.67;0.80;;;;;;;;;;5029796;28;20037;-69
2023/03/13 13:01:39;;;;;;;5.85;1.02;;;;;;;;;;5033311;28;20033;-70
2023/03/13 13:04:11;;;;;;;1.52;0.80;;;;;;;;;;5033538;28;20498;-69
2023/03/13 13:06:50;;;;;;;2.53;1.02;;;;;;;;;;5033898;28;20490;-69
2023/03/13 13:09:43;;;;;;;1.35;0.85;;;;;;;;;;5033580;28;20498;-69
2023/03/13 13:12:18;;;;;;;2.05;0.90;;;;;;;;;;5033772;28;20017;-69
2023/03/13 13:14:47;;;;;;;3.58;1.20;;;;;;;;;;5032664;28;20036;-70
2023/03/13 13:17:22;;;;;;;2.03;1.10;;;;;;;;;;5032943;28;20252;-68
2023/03/13 13:19:49;;;;;;;3.95;1.33;;;;;;;;;;5033617;28;20036;-69
2023/03/13 13:22:51;;;;;;;2.20;1.15;;;;;;;;;;5033364;28;20044;-69
2023/03/13 13:25:17;;;;;;;5.15;1.15;;;;;;;;;;4991113;28;20026;-69
2023/03/13 13:27:43;;;;;;;2.67;1.00;;;;;;;;;;4990811;28;20050;-69
2023/03/13 13:30:18;;;;;;;2.85;1.13;;;;;;;;;;4990752;28;20015;-69
2023/03/13 13:32:48;;;;;;;2.75;1.25;;;;;;;;;;4990406;28;20066;-69
2023/03/13 13:35:19;;;;;;;2.30;1.30;;;;;;;;;;4991594;28;20042;-70
2023/03/13 13:37:46;;;;;;;1.23;1.05;;;;;;;;;;4991681;28;20029;-70
2023/03/13 13:40:15;;;;;;;1.60;0.98;;;;;;;;;;4991424;28;20455;-69
2023/03/13 13:42:49;;;;;;;2.50;1.20;;;;;;;;;;4991546;28;20076;-69
2023/03/13 13:45:15;;;;;;;4.05;1.55;;;;;;;;;;4990865;28;20044;-68
2023/03/13 13:47:46;;;;;;;3.58;1.27;;;;;;;;;;4991298;28;20029;-69
2023/03/13 13:50:20;;;;;;;2.60;1.35;;;;;;;;;;4992397;28;20502;-69
2023/03/13 13:52:47;;;;;;;4.68;1.45;;;;;;;;;;4990554;28;20512;-69
2023/03/13 13:55:32;;;;;;;3.75;1.50;;;;;;;;;;4989874;28;20035;-69
2023/03/13 13:58:03;;;;;;;2.17;1.45;;;;;;;;;;4991549;28;20030;-69
2023/03/13 14:00:39;;;;;;;3.03;1.80;;;;;;;;;;5032608;28;20397;-69
2023/03/13 14:03:22;;;;;;;3.40;2.28;;;;;;;;;;5032420;28;20087;-69
2023/03/13 14:05:51;;;;;;;3.10;2.28;;;;;;;;;;5032291;28;20119;-69
2023/03/13 14:08:23;;;;;;;5.32;2.60;;;;;;;;;;5032296;28;20025;-69
2023/03/13 14:11:05;;;;;;;4.47;2.60;;;;;;;;;;5032251;28;20025;-69
2023/03/13 14:13:31;;;;;;;3.25;2.80;;;;;;;;;;5032310;28;20021;-69
2023/03/13 14:16:12;;;;;;;6.25;2.80;;;;;;;;;;5030435;28;20029;-69
2023/03/13 14:18:42;;;;;;;4.03;3.28;;;;;;;;;;5032068;28;20405;-69
2023/03/13 14:21:12;;;;;;;6.43;3.00;;;;;;;;;;5032084;28;20520;-69
2023/03/13 14:23:41;;;;;;;;;;;;;;;;;;5033357;28;20021;-69
2023/03/13 14:26:18;;;;;;;5.22;3.50;;;;;;;;;;5032418;28;19905;-69
2023/03/13 14:28:53;;;;;;;6.43;3.70;;;;;;;;;;5031986;28;20025;-69
2023/03/13 14:31:24;;;;;;;5.30;3.47;;;;;;;;;;5032564;28;20026;-69
2023/03/13 14:33:50;;;;;;;4.68;3.15;;;;;;;;;;5032365;28;20033;-69
2023/03/13 14:36:17;;;;;;;4.30;3.05;;;;;;;;;;5032035;28;20114;-69
2023/03/13 14:38:56;;;;;;;5.20;3.50;;;;;;;;;;5031986;28;20496;-70
2023/03/13 14:41:26;;;;;;;7.30;3.72;;;;;;;;;;5032131;28;20024;-69
2023/03/13 14:43:54;;;;;;;7.07;3.83;;;;;;;;;;5031835;28;20037;-69
2023/03/13 14:46:29;;;;;;;5.53;3.70;;;;;;;;;;5032025;28;20366;-69
2023/03/13 14:48:55;;;;;;;4.40;3.40;;;;;;;;;;5031874;28;20481;-69
2023/03/13 14:51:24;;;;;;;6.72;3.53;;;;;;;;;;5032274;28;20032;-69
2023/03/13 14:53:58;;;;;;;6.13;3.80;;;;;;;;;;5031290;28;20026;-69
2023/03/13 14:56:31;;;;;;;5.38;3.58;;;;;;;;;;5031745;28;20319;-69